createdAt,value
2022-10-13T00:01:09.960Z,96.30
2022-10-13T00:03:38.577Z,96.00
2022-10-13T00:06:09.977Z,96.10
2022-10-13T00:08:38.553Z,96.00
2022-10-13T00:11:11.679Z,96.00
2022-10-13T00:13:39.441Z,96.40
2022-10-13T00:16:07.962Z,96.40
2022-10-13T00:18:35.917Z,96.60
2022-10-13T00:21:09.855Z,96.80
2022-10-13T00:23:38.007Z,96.80
2022-10-13T00:26:07.673Z,96.20
2022-10-13T00:28:35.653Z,96.20
2022-10-13T00:31:03.479Z,96.50
2022-10-13T00:33:31.168Z,96.70
2022-10-13T00:35:58.857Z,96.60
2022-10-13T00:38:28.117Z,96.60
2022-10-13T00:40:57.745Z,96.50
2022-10-13T00:43:27.677Z,96.80
2022-10-13T00:45:55.786Z,96.80
2022-10-13T00:48:26.336Z,96.80
2022-10-13T00:50:54.770Z,96.80
2022-10-13T00:53:26.142Z,96.80
2022-10-13T00:55:56.445Z,96.60
2022-10-13T00:58:31.195Z,96.80
2022-10-13T01:00:59.982Z,96.80
2022-10-13T01:03:32.397Z,96.80
2022-10-13T01:06:05.365Z,96.80
2022-10-13T01:08:33.867Z,96.80
2022-10-13T01:11:13.500Z,96.80
2022-10-13T01:13:46.957Z,96.80
2022-10-13T01:16:21.336Z,96.80
2022-10-13T01:18:55.415Z,96.80
2022-10-13T01:21:28.900Z,96.80
2022-10-13T01:24:24.092Z,96.80
2022-10-13T01:27:04.687Z,96.80
2022-10-13T01:29:57.838Z,96.70
2022-10-13T01:32:32.511Z,96.80
2022-10-13T01:35:09.091Z,96.80
2022-10-13T01:37:44.963Z,96.80
2022-10-13T01:40:19.257Z,96.80
2022-10-13T01:42:52.633Z,96.80
2022-10-13T01:45:26.989Z,96.80
2022-10-13T01:47:55.457Z,96.80
2022-10-13T01:50:24.006Z,96.80
2022-10-13T01:52:52.932Z,96.80
2022-10-13T01:55:20.621Z,96.80
2022-10-13T01:57:48.316Z,96.80
2022-10-13T02:00:18.203Z,96.80
2022-10-13T02:02:59.652Z,96.80
2022-10-13T02:05:39.676Z,96.80
2022-10-13T02:08:14.133Z,96.50
2022-10-13T02:10:47.142Z,96.10
2022-10-13T02:13:18.565Z,95.80
2022-10-13T02:15:49.777Z,95.60
2022-10-13T02:18:23.183Z,95.90
2022-10-13T02:20:51.877Z,96.00
2022-10-13T02:23:20.116Z,96.20
2022-10-13T02:25:49.875Z,96.00
2022-10-13T02:28:18.899Z,96.50
2022-10-13T02:30:47.337Z,96.80
2022-10-13T02:33:15.641Z,96.80
2022-10-13T02:35:48.048Z,96.80
2022-10-13T02:38:15.845Z,96.70
2022-10-13T02:40:43.509Z,96.70
2022-10-13T02:43:11.273Z,96.60
2022-10-13T02:45:38.983Z,96.80
2022-10-13T02:48:07.063Z,96.80
2022-10-13T02:50:34.841Z,96.80
2022-10-13T02:53:04.072Z,96.80
2022-10-13T02:55:31.760Z,96.80
2022-10-13T02:57:59.900Z,96.80
2022-10-13T03:00:27.760Z,96.80
2022-10-13T03:02:55.523Z,96.80
2022-10-13T03:05:23.263Z,96.80
2022-10-13T03:07:55.836Z,96.70
2022-10-13T03:10:24.893Z,96.70
2022-10-13T03:12:52.730Z,96.60
2022-10-13T03:15:20.400Z,96.50
2022-10-13T03:17:49.776Z,96.70
2022-10-13T03:20:18.384Z,96.80
2022-10-13T03:22:49.745Z,96.80
2022-10-13T03:25:18.176Z,96.80
2022-10-13T03:27:48.376Z,96.80
2022-10-13T03:30:16.162Z,96.80
2022-10-13T03:32:43.984Z,96.80
2022-10-13T03:35:11.693Z,96.80
2022-10-13T03:37:39.733Z,96.80
2022-10-13T03:40:08.544Z,96.80
2022-10-13T03:42:37.236Z,96.80
2022-10-13T03:45:07.317Z,96.80
2022-10-13T03:47:37.217Z,96.80
2022-10-13T03:50:06.484Z,96.60
2022-10-13T03:52:34.413Z,96.60
2022-10-13T03:55:02.090Z,96.70
2022-10-13T03:57:33.329Z,96.60
2022-10-13T04:00:04.726Z,96.80
2022-10-13T04:02:44.437Z,96.80
2022-10-13T04:05:12.169Z,96.80
2022-10-13T04:07:39.874Z,96.80
2022-10-13T04:10:19.346Z,96.80
2022-10-13T04:12:50.307Z,96.80
2022-10-13T04:15:18.162Z,96.80
2022-10-13T04:17:47.223Z,96.70
2022-10-13T04:20:14.923Z,96.80
2022-10-13T04:22:42.617Z,96.80
2022-10-13T04:25:10.648Z,96.80
2022-10-13T04:27:39.345Z,96.80
2022-10-13T04:30:08.189Z,96.80
2022-10-13T04:32:35.833Z,96.80
2022-10-13T04:35:05.314Z,96.80
2022-10-13T04:37:33.094Z,96.80
2022-10-13T04:40:00.776Z,96.80
2022-10-13T04:42:28.696Z,96.80
2022-10-13T04:44:56.502Z,96.80
2022-10-13T04:47:26.303Z,96.80
2022-10-13T04:49:54.012Z,96.80
2022-10-13T04:52:23.215Z,96.80
2022-10-13T04:54:51.960Z,96.80
2022-10-13T04:57:19.861Z,96.80
2022-10-13T04:59:47.570Z,96.80
2022-10-13T05:02:15.325Z,96.80
2022-10-13T05:04:43.227Z,96.80
2022-10-13T05:07:17.904Z,96.80
2022-10-13T05:09:47.860Z,96.80
2022-10-13T05:12:16.431Z,96.80
2022-10-13T05:14:44.163Z,96.80
2022-10-13T05:17:11.817Z,96.80
2022-10-13T05:19:39.506Z,96.80
2022-10-13T05:22:07.397Z,96.80
2022-10-13T05:24:37.261Z,96.80
2022-10-13T05:27:10.027Z,96.80
2022-10-13T05:29:40.837Z,96.80
2022-10-13T05:32:09.223Z,96.80
2022-10-13T05:34:36.957Z,96.80
2022-10-13T05:37:08.039Z,96.80
2022-10-13T05:39:35.774Z,96.80
2022-10-13T05:42:03.617Z,96.80
2022-10-13T05:44:32.674Z,96.80
2022-10-13T05:47:04.978Z,96.80
2022-10-13T05:49:36.293Z,96.80
2022-10-13T05:52:07.545Z,96.80
2022-10-13T05:54:38.351Z,96.80
2022-10-13T05:57:12.514Z,96.80
2022-10-13T05:59:45.201Z,96.80
2022-10-13T06:02:22.064Z,96.80
2022-10-13T06:04:52.695Z,96.80
2022-10-13T06:07:23.042Z,96.80
2022-10-13T06:09:51.253Z,96.80
2022-10-13T06:12:19.503Z,96.80
2022-10-13T06:14:48.840Z,96.80
2022-10-13T06:17:17.926Z,96.80
2022-10-13T06:19:46.136Z,96.80
2022-10-13T06:22:13.909Z,96.80
2022-10-13T06:24:44.643Z,96.80
2022-10-13T06:27:13.251Z,96.80
2022-10-13T06:29:41.249Z,96.80
2022-10-13T06:32:10.346Z,96.80
2022-10-13T06:34:38.208Z,96.80
2022-10-13T06:37:06.633Z,96.80
2022-10-13T06:39:35.762Z,96.80
2022-10-13T06:42:07.381Z,96.80
2022-10-13T06:44:38.947Z,96.80
2022-10-13T06:47:07.082Z,96.80
2022-10-13T06:49:36.112Z,96.80
2022-10-13T06:52:04.110Z,96.80
2022-10-13T06:54:31.840Z,96.80
2022-10-13T06:56:59.524Z,96.80
2022-10-13T06:59:27.707Z,96.80
2022-10-13T07:01:55.464Z,96.80
2022-10-13T07:04:25.761Z,96.80
2022-10-13T07:06:57.170Z,96.80
2022-10-13T07:09:25.009Z,96.80
2022-10-13T07:11:52.717Z,96.70
2022-10-13T07:14:20.585Z,96.60
2022-10-13T07:16:48.940Z,96.80
2022-10-13T07:19:16.645Z,96.80
2022-10-13T07:21:44.489Z,96.70
2022-10-13T07:24:13.876Z,96.40
2022-10-13T07:26:41.628Z,96.30
2022-10-13T07:29:09.616Z,95.90
2022-10-13T07:31:37.335Z,95.60
2022-10-13T07:34:05.508Z,95.00
2022-10-13T07:36:33.409Z,93.70
2022-10-13T07:39:02.875Z,93.00
2022-10-13T07:41:32.045Z,93.00
2022-10-13T07:44:00.055Z,92.70
2022-10-13T07:46:27.946Z,92.40
2022-10-13T07:48:55.622Z,91.50
2022-10-13T07:51:24.172Z,90.60
2022-10-13T07:53:54.281Z,90.50
2022-10-13T07:56:22.162Z,90.40
2022-10-13T07:58:51.216Z,91.00
2022-10-13T08:01:19.245Z,92.20
2022-10-13T08:03:50.253Z,92.50
2022-10-13T08:06:19.633Z,92.70
2022-10-13T08:08:48.335Z,92.90
2022-10-13T08:11:18.752Z,92.50
2022-10-13T08:13:49.032Z,92.20
2022-10-13T08:16:22.869Z,91.80
2022-10-13T08:18:50.730Z,91.60
2022-10-13T08:24:11.063Z,90.60
2022-10-13T08:26:39.057Z,90.30
2022-10-13T08:29:21.262Z,90.00
2022-10-13T08:31:52.326Z,89.80
2022-10-13T08:34:23.731Z,89.60
2022-10-13T08:36:59.585Z,89.70
2022-10-13T08:39:27.344Z,89.50
2022-10-13T08:41:57.674Z,88.90
2022-10-13T08:47:31.388Z,88.20
2022-10-13T08:50:02.168Z,88.20
2022-10-13T08:52:44.742Z,87.90
2022-10-13T08:55:21.467Z,87.40
2022-10-13T08:57:49.338Z,87.50
2022-10-13T09:00:18.931Z,87.40
2022-10-13T09:02:52.592Z,87.40
2022-10-13T09:05:35.655Z,87.20
2022-10-13T09:08:10.761Z,87.00
2022-10-13T09:10:47.809Z,87.10
2022-10-13T09:13:19.563Z,87.00
2022-10-13T09:15:50.204Z,87.20
2022-10-13T09:18:19.324Z,87.30
2022-10-13T09:20:49.610Z,87.80
2022-10-13T09:23:20.868Z,88.30
2022-10-13T09:25:50.567Z,88.40
2022-10-13T09:28:23.577Z,88.80
2022-10-13T09:31:02.533Z,89.10
2022-10-13T09:33:36.493Z,89.20
2022-10-13T09:36:11.570Z,89.50
2022-10-13T09:38:40.814Z,89.40
2022-10-13T09:41:15.313Z,89.60
2022-10-13T09:43:44.652Z,89.70
2022-10-13T09:46:23.631Z,89.90
2022-10-13T09:48:55.428Z,90.00
2022-10-13T09:51:39.735Z,90.10
2022-10-13T09:54:34.239Z,90.30
2022-10-13T09:57:06.466Z,89.90
2022-10-13T09:59:37.733Z,89.90
2022-10-13T10:02:21.344Z,89.00
2022-10-13T10:04:54.728Z,88.20
2022-10-13T10:07:32.938Z,87.40
2022-10-13T10:10:08.983Z,86.60
2022-10-13T10:12:45.520Z,85.80
2022-10-13T10:15:21.104Z,86.40
2022-10-13T10:17:55.166Z,86.70
2022-10-13T10:20:38.249Z,85.80
2022-10-13T10:23:12.042Z,83.80
2022-10-13T10:25:45.612Z,82.60
2022-10-13T10:28:43.230Z,82.10
2022-10-13T10:31:21.930Z,80.50
2022-10-13T10:34:00.273Z,80.30
2022-10-13T10:36:38.981Z,79.40
2022-10-13T10:39:16.418Z,79.70
2022-10-13T10:41:51.105Z,79.80
2022-10-13T10:44:30.495Z,80.30
2022-10-13T10:47:03.069Z,80.60
2022-10-13T10:49:34.999Z,81.10
2022-10-13T10:52:08.269Z,81.30
2022-10-13T10:54:52.844Z,80.90
2022-10-13T10:57:31.101Z,81.20
2022-10-13T11:00:04.908Z,81.20
2022-10-13T11:02:47.246Z,81.40
2022-10-13T11:05:18.049Z,82.10
2022-10-13T11:08:02.017Z,81.70
2022-10-13T11:10:30.907Z,82.10
2022-10-13T11:13:18.110Z,82.20
2022-10-13T11:15:47.166Z,82.10
2022-10-13T11:18:44.681Z,81.70
2022-10-13T11:21:12.423Z,82.50
2022-10-13T11:23:46.865Z,82.50
2022-10-13T11:26:31.623Z,82.50
2022-10-13T11:29:00.660Z,82.70
2022-10-13T11:31:48.034Z,81.90
2022-10-13T11:34:32.426Z,82.10
2022-10-13T11:37:02.958Z,81.80
2022-10-13T11:39:59.501Z,81.90
2022-10-13T11:42:39.816Z,82.00
2022-10-13T11:45:18.413Z,82.10
2022-10-13T11:50:44.102Z,81.90
2022-10-13T11:53:18.635Z,81.90
2022-10-13T11:55:51.942Z,81.60
2022-10-13T11:58:22.276Z,82.00
2022-10-13T12:00:55.981Z,82.00
2022-10-13T12:03:27.829Z,82.40
2022-10-13T12:05:59.938Z,82.70
2022-10-13T12:08:30.450Z,82.20
2022-10-13T12:10:59.996Z,82.20
2022-10-13T12:13:30.300Z,82.60
2022-10-13T12:16:00.917Z,82.30
2022-10-13T12:18:33.786Z,82.10
2022-10-13T12:21:03.682Z,82.80
2022-10-13T12:23:32.901Z,83.00
2022-10-13T12:26:02.512Z,83.00
2022-10-13T12:28:43.857Z,83.30
2022-10-13T12:31:19.582Z,83.30
2022-10-13T12:33:54.371Z,83.40
2022-10-13T12:36:26.534Z,83.60
2022-10-13T12:38:59.548Z,83.60
2022-10-13T12:41:30.632Z,83.80
2022-10-13T12:44:01.182Z,83.10
2022-10-13T12:46:41.297Z,83.30
2022-10-13T12:49:14.939Z,83.30
2022-10-13T12:51:44.216Z,83.50
2022-10-13T12:54:20.419Z,83.80
2022-10-13T12:56:55.296Z,84.20
2022-10-13T12:59:25.557Z,84.10
2022-10-13T13:01:55.452Z,84.20
2022-10-13T13:04:40.954Z,84.60
2022-10-13T13:07:31.204Z,84.90
2022-10-13T13:10:04.488Z,84.80
2022-10-13T13:12:40.948Z,84.70
2022-10-13T13:15:33.449Z,85.00
2022-10-13T13:18:31.516Z,85.00
2022-10-13T13:20:59.341Z,85.20
2022-10-13T13:23:33.476Z,85.30
2022-10-13T13:26:04.077Z,85.20
2022-10-13T13:28:34.011Z,85.30
2022-10-13T13:31:04.332Z,85.40
2022-10-13T13:33:32.028Z,85.00
2022-10-13T13:36:03.694Z,85.70
2022-10-13T13:38:33.292Z,85.30
2022-10-13T13:41:03.858Z,85.40
2022-10-13T13:43:33.258Z,85.50
2022-10-13T13:46:01.074Z,85.60
2022-10-13T13:48:28.818Z,85.60
2022-10-13T13:50:58.789Z,86.10
2022-10-13T13:53:26.607Z,86.50
2022-10-13T13:55:54.372Z,85.40
2022-10-13T13:58:22.078Z,84.40
2022-10-13T14:00:52.005Z,84.30
2022-10-13T14:03:19.761Z,84.30
2022-10-13T14:05:47.507Z,84.60
2022-10-13T14:08:15.205Z,84.80
2022-10-13T14:10:43.053Z,85.00
2022-10-13T14:13:10.876Z,84.90
2022-10-13T14:15:38.570Z,85.00
2022-10-13T14:18:07.602Z,85.50
2022-10-13T14:20:35.337Z,85.90
2022-10-13T14:23:03.032Z,85.50
2022-10-13T14:25:30.714Z,85.50
2022-10-13T14:27:58.466Z,85.60
2022-10-13T14:30:26.167Z,85.80
2022-10-13T14:32:53.909Z,85.80
2022-10-13T14:35:25.206Z,86.10
2022-10-13T14:37:52.927Z,86.20
2022-10-13T14:40:20.681Z,86.50
2022-10-13T14:42:49.730Z,86.50
2022-10-13T14:45:17.818Z,86.80
2022-10-13T14:47:45.657Z,86.80
2022-10-13T14:50:13.326Z,86.80
2022-10-13T14:52:42.959Z,86.90
2022-10-13T14:55:10.820Z,86.90
2022-10-13T14:57:39.728Z,86.90
2022-10-13T15:00:08.185Z,87.00
2022-10-13T15:02:39.880Z,87.10
2022-10-13T15:05:08.362Z,87.30
2022-10-13T15:07:40.812Z,87.40
2022-10-13T15:10:10.529Z,88.50
2022-10-13T15:12:38.264Z,88.70
2022-10-13T15:15:06.608Z,88.80
2022-10-13T15:17:37.765Z,88.90
2022-10-13T15:20:06.808Z,88.90
2022-10-13T15:22:34.559Z,89.20
2022-10-13T15:25:04.322Z,89.10
2022-10-13T15:27:35.898Z,89.30
2022-10-13T15:30:08.337Z,89.40
2022-10-13T15:32:36.072Z,89.70
2022-10-13T15:35:04.078Z,90.80
2022-10-13T15:37:34.839Z,90.70
2022-10-13T15:40:02.749Z,90.70
2022-10-13T15:42:30.464Z,90.80
2022-10-13T15:45:14.781Z,90.80
2022-10-13T15:47:42.541Z,90.70
2022-10-13T15:50:10.395Z,90.50
2022-10-13T15:52:41.309Z,90.80
2022-10-13T15:55:09.938Z,90.90
2022-10-13T15:57:38.050Z,91.00
2022-10-13T16:00:14.010Z,91.00
2022-10-13T16:02:43.233Z,90.20
2022-10-13T16:05:12.972Z,90.40
2022-10-13T16:07:41.524Z,90.50
2022-10-13T16:10:12.039Z,91.00
2022-10-13T16:12:40.251Z,91.60
2022-10-13T16:15:10.786Z,91.90
2022-10-13T16:17:38.998Z,92.20
2022-10-13T16:20:08.729Z,92.40
2022-10-13T16:22:36.453Z,92.70
2022-10-13T16:25:06.727Z,92.80
2022-10-13T16:27:34.593Z,93.10
2022-10-13T16:30:02.293Z,93.30
2022-10-13T16:32:31.553Z,93.50
2022-10-13T16:35:00.265Z,93.70
2022-10-13T16:37:27.995Z,94.00
2022-10-13T16:39:55.742Z,94.10
2022-10-13T16:42:23.465Z,94.40
2022-10-13T16:44:51.173Z,94.70
2022-10-13T16:47:19.046Z,94.90
2022-10-13T16:49:48.283Z,94.90
2022-10-13T16:52:17.346Z,94.80
2022-10-13T16:54:45.183Z,94.80
2022-10-13T16:57:12.898Z,94.90
2022-10-13T16:59:40.612Z,94.90
2022-10-13T17:02:10.784Z,95.00
2022-10-13T17:04:41.746Z,95.20
2022-10-13T17:07:10.925Z,95.60
2022-10-13T17:09:38.629Z,95.80
2022-10-13T17:12:07.045Z,96.10
2022-10-13T17:14:34.945Z,96.20
2022-10-13T17:17:02.684Z,96.20
2022-10-13T17:19:30.385Z,96.40
2022-10-13T17:21:59.217Z,96.70
2022-10-13T17:24:29.722Z,96.80
2022-10-13T17:26:57.434Z,96.80
2022-10-13T17:29:25.117Z,96.80
2022-10-13T17:31:54.362Z,96.80
2022-10-13T17:34:23.161Z,96.80
2022-10-13T17:36:52.301Z,96.80
2022-10-13T17:39:20.087Z,96.80
2022-10-13T17:41:49.101Z,96.80
2022-10-13T17:44:20.320Z,96.80
2022-10-13T17:46:48.973Z,96.80
2022-10-13T17:49:17.409Z,96.80
2022-10-13T17:51:46.256Z,96.80
2022-10-13T17:54:16.304Z,96.80
2022-10-13T17:56:45.053Z,96.80
2022-10-13T17:59:15.186Z,96.80
2022-10-13T18:01:44.806Z,96.80
2022-10-13T18:04:14.993Z,96.80
2022-10-13T18:06:44.608Z,96.80
2022-10-13T18:09:16.702Z,96.80
2022-10-13T18:11:50.330Z,96.80
2022-10-13T18:14:20.733Z,96.80
2022-10-13T18:16:50.081Z,96.80
2022-10-13T18:19:18.493Z,96.80
2022-10-13T18:21:46.264Z,96.80
2022-10-13T18:24:14.017Z,96.80
2022-10-13T18:26:42.201Z,96.80
2022-10-13T18:29:12.274Z,96.80
2022-10-13T18:31:42.426Z,96.80
2022-10-13T18:34:13.621Z,96.80
2022-10-13T18:36:43.018Z,96.80
2022-10-13T18:39:13.317Z,96.80
2022-10-13T18:41:41.513Z,96.80
2022-10-13T18:44:09.744Z,96.80
2022-10-13T18:46:39.351Z,96.80
2022-10-13T18:49:11.123Z,96.80
2022-10-13T18:51:40.005Z,96.80
2022-10-13T18:54:08.389Z,96.80
2022-10-13T18:56:37.137Z,96.80
2022-10-13T18:59:07.699Z,96.80
2022-10-13T19:01:36.969Z,96.80
2022-10-13T19:04:07.179Z,96.80
2022-10-13T19:06:36.922Z,96.80
2022-10-13T19:09:07.180Z,96.80
2022-10-13T19:11:37.485Z,96.80
2022-10-13T19:14:08.766Z,96.80
2022-10-13T19:16:39.063Z,96.80
2022-10-13T19:19:09.064Z,96.80
2022-10-13T19:21:40.011Z,96.80
2022-10-13T19:24:10.192Z,96.80
2022-10-13T19:26:38.337Z,96.80
2022-10-13T19:29:08.109Z,96.80
2022-10-13T19:31:38.568Z,96.80
2022-10-13T19:34:10.527Z,96.80
2022-10-13T19:36:41.538Z,96.80
2022-10-13T19:39:13.613Z,96.80
2022-10-13T19:41:41.735Z,96.80
2022-10-13T19:44:09.631Z,96.80
2022-10-13T19:46:40.838Z,96.80
2022-10-13T19:49:09.269Z,96.80
2022-10-13T19:51:41.576Z,96.80
2022-10-13T19:54:09.490Z,96.80
2022-10-13T19:56:39.190Z,96.80
2022-10-13T19:59:08.926Z,96.80
2022-10-13T20:01:39.941Z,96.80
2022-10-13T20:04:14.121Z,96.80
2022-10-13T20:06:45.662Z,96.80
2022-10-13T20:09:14.288Z,96.80
2022-10-13T20:11:42.349Z,96.80
2022-10-13T20:14:10.156Z,96.80
2022-10-13T20:16:38.133Z,96.80
2022-10-13T20:19:07.735Z,96.80
2022-10-13T20:21:35.526Z,96.80
2022-10-13T20:24:04.577Z,96.80
2022-10-13T20:26:32.578Z,96.80
2022-10-13T20:29:00.308Z,96.80
2022-10-13T20:31:28.220Z,96.80
2022-10-13T20:34:00.109Z,96.80
2022-10-13T20:36:36.142Z,96.80
2022-10-13T20:39:08.796Z,96.80
2022-10-13T20:41:36.587Z,96.80
2022-10-13T20:44:04.598Z,96.80
2022-10-13T20:46:34.618Z,96.80
2022-10-13T20:49:11.535Z,96.80
2022-10-13T20:51:40.906Z,96.80
2022-10-13T20:54:10.267Z,96.80
2022-10-13T20:56:39.298Z,96.80
2022-10-13T20:59:09.087Z,96.80
2022-10-13T21:01:37.733Z,96.80
2022-10-13T21:04:06.456Z,96.80
2022-10-13T21:06:35.630Z,96.80
2022-10-13T21:09:03.993Z,96.80
2022-10-13T21:11:33.141Z,96.80
2022-10-13T21:14:02.778Z,96.80
2022-10-13T21:16:30.561Z,96.80
2022-10-13T21:18:58.824Z,96.80
2022-10-13T21:21:28.516Z,96.80
2022-10-13T21:23:58.597Z,96.80
2022-10-13T21:26:28.093Z,96.80
2022-10-13T21:28:57.517Z,96.80
2022-10-13T21:31:26.373Z,96.70
2022-10-13T21:33:54.713Z,96.70
2022-10-13T21:36:24.642Z,96.60
2022-10-13T21:38:54.694Z,96.60
2022-10-13T21:41:23.372Z,96.50
2022-10-13T21:43:51.124Z,96.40
2022-10-13T21:46:23.657Z,96.40
2022-10-13T21:48:54.990Z,96.50
2022-10-13T21:51:24.620Z,96.60
2022-10-13T21:53:54.185Z,96.50
2022-10-13T21:56:23.111Z,96.80
2022-10-13T21:58:51.031Z,96.80
2022-10-13T22:01:21.350Z,96.80
2022-10-13T22:03:52.922Z,96.80
2022-10-13T22:06:21.392Z,96.80
2022-10-13T22:08:50.626Z,96.80
2022-10-13T22:11:28.234Z,96.80
2022-10-13T22:13:57.013Z,96.80
2022-10-13T22:16:28.998Z,96.80
2022-10-13T22:18:58.394Z,96.80
2022-10-13T22:21:28.696Z,96.80
2022-10-13T22:23:58.361Z,96.80
2022-10-13T22:26:27.041Z,96.80
2022-10-13T22:28:54.767Z,96.80
2022-10-13T22:31:22.494Z,96.80
2022-10-13T22:33:53.514Z,96.80
2022-10-13T22:36:23.036Z,96.80
2022-10-13T22:38:52.129Z,96.80
2022-10-13T22:41:20.631Z,96.80
2022-10-13T22:43:51.086Z,96.80
2022-10-13T22:46:26.254Z,96.80
2022-10-13T22:48:56.137Z,96.80
2022-10-13T22:51:36.036Z,96.80
2022-10-13T22:54:10.625Z,96.80
2022-10-13T22:56:45.861Z,96.80
2022-10-13T22:59:13.931Z,96.80
2022-10-13T23:01:42.032Z,96.80
2022-10-13T23:04:11.067Z,96.80
2022-10-13T23:06:39.244Z,96.70
2022-10-13T23:09:09.530Z,96.50
2022-10-13T23:11:37.430Z,96.20
2022-10-13T23:14:06.708Z,96.20
2022-10-13T23:16:35.072Z,95.90
2022-10-13T23:19:03.490Z,95.90
2022-10-13T23:21:32.877Z,95.90
2022-10-13T23:24:02.400Z,96.00
2022-10-13T23:26:37.499Z,95.60
2022-10-13T23:29:06.057Z,95.00
2022-10-13T23:31:33.828Z,95.10
2022-10-13T23:34:01.544Z,95.10
2022-10-13T23:36:33.173Z,95.20
2022-10-13T23:39:02.856Z,95.30
2022-10-13T23:41:30.928Z,95.20
2022-10-13T23:43:59.169Z,95.30
2022-10-13T23:46:30.841Z,95.00
2022-10-13T23:49:00.929Z,95.10
2022-10-13T23:51:28.593Z,95.10
2022-10-13T23:53:57.610Z,94.40
2022-10-13T23:56:25.880Z,94.90
2022-10-13T23:58:53.614Z,95.30
